sensor_id;sensor_type;location;lat;lon;timestamp;pressure;altitude;pressure_sealevel;temperature;humidity
22104;BME280;11218;48.886;9.426;2022-11-20T00:00:54;97546.53;;;5.78;96.13
22104;BME280;11218;48.886;9.426;2022-11-20T00:03:22;97551.41;;;5.81;96.84
22104;BME280;11218;48.886;9.426;2022-11-20T00:05:50;97555.50;;;5.84;97.29
22104;BME280;11218;48.886;9.426;2022-11-20T00:08:18;97550.72;;;5.86;96.54
22104;BME280;11218;48.886;9.426;2022-11-20T00:10:48;97553.97;;;5.88;96.54
22104;BME280;11218;48.886;9.426;2022-11-20T00:13:16;97563.97;;;5.81;97.07
22104;BME280;11218;48.886;9.426;2022-11-20T00:15:43;97549.44;;;5.77;96.22
22104;BME280;11218;48.886;9.426;2022-11-20T00:18:11;97558.03;;;5.67;96.64
22104;BME280;11218;48.886;9.426;2022-11-20T00:20:39;97564.63;;;5.65;96.31
22104;BME280;11218;48.886;9.426;2022-11-20T00:23:07;97563.69;;;5.59;95.74
22104;BME280;11218;48.886;9.426;2022-11-20T00:25:35;97558.59;;;5.57;96.04
22104;BME280;11218;48.886;9.426;2022-11-20T00:28:04;97558.81;;;5.56;96.11
22104;BME280;11218;48.886;9.426;2022-11-20T00:30:32;97560.22;;;5.58;95.88
22104;BME280;11218;48.886;9.426;2022-11-20T00:33:00;97554.75;;;5.53;97.01
22104;BME280;11218;48.886;9.426;2022-11-20T00:35:28;97552.19;;;5.58;96.99
22104;BME280;11218;48.886;9.426;2022-11-20T00:37:56;97559.97;;;5.60;97.37
22104;BME280;11218;48.886;9.426;2022-11-20T00:40:23;97551.50;;;5.63;97.01
22104;BME280;11218;48.886;9.426;2022-11-20T00:42:51;97543.16;;;5.59;96.19
22104;BME280;11218;48.886;9.426;2022-11-20T00:45:20;97552.56;;;5.62;96.71
22104;BME280;11218;48.886;9.426;2022-11-20T00:47:48;97544.91;;;5.66;97.46
22104;BME280;11218;48.886;9.426;2022-11-20T00:50:16;97550.38;;;5.71;98.15
22104;BME280;11218;48.886;9.426;2022-11-20T00:52:44;97556.06;;;5.74;98.06
22104;BME280;11218;48.886;9.426;2022-11-20T00:55:12;97563.97;;;5.81;97.83
22104;BME280;11218;48.886;9.426;2022-11-20T00:57:40;97561.88;;;5.83;97.11
22104;BME280;11218;48.886;9.426;2022-11-20T01:00:09;97559.56;;;5.86;97.85
22104;BME280;11218;48.886;9.426;2022-11-20T01:02:38;97567.72;;;5.91;97.42
22104;BME280;11218;48.886;9.426;2022-11-20T01:05:06;97569.66;;;5.84;96.40
22104;BME280;11218;48.886;9.426;2022-11-20T01:07:34;97575.56;;;5.86;96.66
22104;BME280;11218;48.886;9.426;2022-11-20T01:10:03;97571.50;;;5.84;96.67
22104;BME280;11218;48.886;9.426;2022-11-20T01:12:31;97571.28;;;5.85;96.65
22104;BME280;11218;48.886;9.426;2022-11-20T01:14:59;97564.19;;;5.79;96.76
22104;BME280;11218;48.886;9.426;2022-11-20T01:17:27;97566.03;;;5.79;96.50
22104;BME280;11218;48.886;9.426;2022-11-20T01:19:56;97571.03;;;5.87;96.26
22104;BME280;11218;48.886;9.426;2022-11-20T01:22:24;97576.16;;;5.77;96.26
22104;BME280;11218;48.886;9.426;2022-11-20T01:24:52;97574.75;;;5.74;95.90
22104;BME280;11218;48.886;9.426;2022-11-20T01:27:20;97575.22;;;5.71;96.93
22104;BME280;11218;48.886;9.426;2022-11-20T01:29:48;97576.97;;;5.77;95.84
22104;BME280;11218;48.886;9.426;2022-11-20T01:32:16;97580.19;;;5.68;96.31
22104;BME280;11218;48.886;9.426;2022-11-20T01:34:44;97577.75;;;5.66;96.85
22104;BME280;11218;48.886;9.426;2022-11-20T01:37:13;97577.53;;;5.68;97.24
22104;BME280;11218;48.886;9.426;2022-11-20T01:39:41;97577.66;;;5.73;96.46
22104;BME280;11218;48.886;9.426;2022-11-20T01:42:09;97579.16;;;5.80;96.81
22104;BME280;11218;48.886;9.426;2022-11-20T01:44:56;97571.97;;;5.81;96.66
22104;BME280;11218;48.886;9.426;2022-11-20T01:47:28;97575.00;;;5.84;97.22
22104;BME280;11218;48.886;9.426;2022-11-20T01:50:04;97573.72;;;5.87;96.93
22104;BME280;11218;48.886;9.426;2022-11-20T01:52:36;97579.06;;;5.87;96.91
22104;BME280;11218;48.886;9.426;2022-11-20T01:55:07;97567.34;;;5.88;97.07
22104;BME280;11218;48.886;9.426;2022-11-20T01:57:38;97568.16;;;5.88;96.81
22104;BME280;11218;48.886;9.426;2022-11-20T02:00:09;97573.94;;;5.85;97.23
22104;BME280;11218;48.886;9.426;2022-11-20T02:02:39;97569.75;;;5.78;96.06
22104;BME280;11218;48.886;9.426;2022-11-20T02:05:15;97567.91;;;5.78;96.71
22104;BME280;11218;48.886;9.426;2022-11-20T02:07:46;97561.63;;;5.73;96.00
22104;BME280;11218;48.886;9.426;2022-11-20T02:10:15;97553.72;;;5.66;97.04
22104;BME280;11218;48.886;9.426;2022-11-20T02:12:43;97565.22;;;5.67;96.64
22104;BME280;11218;48.886;9.426;2022-11-20T02:15:28;97552.91;;;5.66;96.85
22104;BME280;11218;48.886;9.426;2022-11-20T02:17:56;97565.22;;;5.67;96.71
22104;BME280;11218;48.886;9.426;2022-11-20T02:20:25;97568.47;;;5.69;96.93
22104;BME280;11218;48.886;9.426;2022-11-20T02:22:59;97560.34;;;5.75;96.01
22104;BME280;11218;48.886;9.426;2022-11-20T02:25:33;97564.88;;;5.75;96.70
22104;BME280;11218;48.886;9.426;2022-11-20T02:28:03;97561.75;;;5.78;95.85
22104;BME280;11218;48.886;9.426;2022-11-20T02:30:32;97572.78;;;5.81;94.97
22104;BME280;11218;48.886;9.426;2022-11-20T02:33:00;97560.47;;;5.80;95.64
22104;BME280;11218;48.886;9.426;2022-11-20T02:35:43;97563.97;;;5.81;95.59
22104;BME280;11218;48.886;9.426;2022-11-20T02:38:11;97559.44;;;5.81;95.45
22104;BME280;11218;48.886;9.426;2022-11-20T02:40:40;97563.25;;;5.85;95.78
22104;BME280;11218;48.886;9.426;2022-11-20T02:43:08;97568.16;;;5.88;95.63
22104;BME280;11218;48.886;9.426;2022-11-20T02:45:36;97570.63;;;5.90;95.77
22104;BME280;11218;48.886;9.426;2022-11-20T02:48:06;97568.53;;;5.92;95.80
22104;BME280;11218;48.886;9.426;2022-11-20T02:50:37;97569.09;;;5.94;95.37
22104;BME280;11218;48.886;9.426;2022-11-20T02:53:06;97565.38;;;5.95;95.23
22104;BME280;11218;48.886;9.426;2022-11-20T02:55:34;97567.81;;;5.97;95.64
22104;BME280;11218;48.886;9.426;2022-11-20T02:58:03;97567.00;;;5.96;94.97
22104;BME280;11218;48.886;9.426;2022-11-20T03:00:31;97574.53;;;5.99;95.45
22104;BME280;11218;48.886;9.426;2022-11-20T03:03:00;97561.19;;;5.99;94.33
22104;BME280;11218;48.886;9.426;2022-11-20T03:05:27;97568.63;;;5.97;94.75
22104;BME280;11218;48.886;9.426;2022-11-20T03:07:55;97565.72;;;5.99;95.12
22104;BME280;11218;48.886;9.426;2022-11-20T03:10:23;97549.34;;;5.95;94.68
22104;BME280;11218;48.886;9.426;2022-11-20T03:12:53;97557.47;;;6.00;94.88
22104;BME280;11218;48.886;9.426;2022-11-20T03:15:23;97563.84;;;5.99;94.41
22104;BME280;11218;48.886;9.426;2022-11-20T03:17:53;97562.34;;;6.03;94.52
22104;BME280;11218;48.886;9.426;2022-11-20T03:20:22;97557.25;;;6.02;94.05
22104;BME280;11218;48.886;9.426;2022-11-20T03:22:50;97559.09;;;6.01;94.82
22104;BME280;11218;48.886;9.426;2022-11-20T03:25:17;97552.94;;;6.01;93.66
22104;BME280;11218;48.886;9.426;2022-11-20T03:27:45;97552.94;;;6.01;94.27
22104;BME280;11218;48.886;9.426;2022-11-20T03:30:13;97550.63;;;6.04;93.68
22104;BME280;11218;48.886;9.426;2022-11-20T03:32:43;97554.56;;;6.02;94.19
22104;BME280;11218;48.886;9.426;2022-11-20T03:35:11;97553.75;;;6.01;93.28
22104;BME280;11218;48.886;9.426;2022-11-20T03:37:39;97544.94;;;6.01;92.92
22104;BME280;11218;48.886;9.426;2022-11-20T03:40:08;97550.63;;;6.04;93.57
22104;BME280;11218;48.886;9.426;2022-11-20T03:42:36;97546.31;;;6.03;93.38
22104;BME280;11218;48.886;9.426;2022-11-20T03:45:14;97554.09;;;6.05;92.43
22104;BME280;11218;48.886;9.426;2022-11-20T03:47:43;97561.06;;;6.06;92.17
22104;BME280;11218;48.886;9.426;2022-11-20T03:50:12;97552.00;;;6.07;91.29
22104;BME280;11218;48.886;9.426;2022-11-20T03:52:41;97546.09;;;6.05;90.97
22104;BME280;11218;48.886;9.426;2022-11-20T03:55:09;97547.94;;;6.04;90.72
22104;BME280;11218;48.886;9.426;2022-11-20T03:57:37;97544.34;;;6.10;91.03
22104;BME280;11218;48.886;9.426;2022-11-20T04:00:06;97544.56;;;6.09;91.31
22104;BME280;11218;48.886;9.426;2022-11-20T04:02:34;97544.09;;;6.12;91.12
22104;BME280;11218;48.886;9.426;2022-11-20T04:05:03;97545.84;;;6.06;90.78
22104;BME280;11218;48.886;9.426;2022-11-20T04:07:33;97547.47;;;6.07;90.27
22104;BME280;11218;48.886;9.426;2022-11-20T04:10:02;97553.06;;;6.17;90.59
22104;BME280;11218;48.886;9.426;2022-11-20T04:12:32;97545.63;;;6.08;89.99
22104;BME280;11218;48.886;9.426;2022-11-20T04:15:00;97550.97;;;6.08;91.01
22104;BME280;11218;48.886;9.426;2022-11-20T04:17:28;97543.53;;;6.10;90.08
22104;BME280;11218;48.886;9.426;2022-11-20T04:19:56;97534.59;;;6.16;89.80
22104;BME280;11218;48.886;9.426;2022-11-20T04:22:25;97547.00;;;6.10;90.79
22104;BME280;11218;48.886;9.426;2022-11-20T04:24:53;97542.03;;;6.14;90.54
22104;BME280;11218;48.886;9.426;2022-11-20T04:27:21;97542.03;;;6.14;90.25
22104;BME280;11218;48.886;9.426;2022-11-20T04:29:49;97540.63;;;6.11;90.40
22104;BME280;11218;48.886;9.426;2022-11-20T04:32:17;97541.91;;;6.09;90.19
22104;BME280;11218;48.886;9.426;2022-11-20T04:34:45;97534.25;;;6.12;90.35
22104;BME280;11218;48.886;9.426;2022-11-20T04:37:13;97536.09;;;6.12;90.71
22104;BME280;11218;48.886;9.426;2022-11-20T04:39:42;97535.97;;;6.07;90.62
22104;BME280;11218;48.886;9.426;2022-11-20T04:42:10;97544.56;;;6.09;90.70
22104;BME280;11218;48.886;9.426;2022-11-20T04:44:56;97542.72;;;6.09;89.64
22104;BME280;11218;48.886;9.426;2022-11-20T04:47:24;97533.66;;;6.10;89.37
22104;BME280;11218;48.886;9.426;2022-11-20T04:49:52;97532.72;;;6.05;90.36
22104;BME280;11218;48.886;9.426;2022-11-20T04:52:20;97532.16;;;6.14;89.80
22104;BME280;11218;48.886;9.426;2022-11-20T04:54:49;97535.50;;;6.10;89.96
22104;BME280;11218;48.886;9.426;2022-11-20T04:57:19;97539.81;;;6.11;89.44
22104;BME280;11218;48.886;9.426;2022-11-20T04:59:47;97545.38;;;6.09;90.15
22104;BME280;11218;48.886;9.426;2022-11-20T05:02:15;97540.50;;;6.06;89.49
22104;BME280;11218;48.886;9.426;2022-11-20T05:04:43;97544.47;;;6.04;90.57
22104;BME280;11218;48.886;9.426;2022-11-20T05:07:11;97546.66;;;6.07;89.74
22104;BME280;11218;48.886;9.426;2022-11-20T05:09:39;97534.69;;;6.09;90.20
22104;BME280;11218;48.886;9.426;2022-11-20T05:12:08;97540.50;;;6.06;89.79
22104;BME280;11218;48.886;9.426;2022-11-20T05:14:36;97530.53;;;6.02;89.71
22104;BME280;11218;48.886;9.426;2022-11-20T05:17:04;97530.75;;;6.00;89.75
22104;BME280;11218;48.886;9.426;2022-11-20T05:19:32;97532.63;;;6.00;89.44
22104;BME280;11218;48.886;9.426;2022-11-20T05:22:00;97535.53;;;5.98;90.73
22104;BME280;11218;48.886;9.426;2022-11-20T05:24:28;97540.63;;;6.00;91.00
22104;BME280;11218;48.886;9.426;2022-11-20T05:26:56;97541.44;;;6.00;90.10
22104;BME280;11218;48.886;9.426;2022-11-20T05:29:25;97549.00;;;6.03;89.57
22104;BME280;11218;48.886;9.426;2022-11-20T05:31:53;97542.25;;;6.01;89.42
22104;BME280;11218;48.886;9.426;2022-11-20T05:34:21;97548.19;;;6.03;90.56
22104;BME280;11218;48.886;9.426;2022-11-20T05:36:48;97542.03;;;6.02;90.34
22104;BME280;11218;48.886;9.426;2022-11-20T05:39:16;97540.97;;;6.03;90.26
22104;BME280;11218;48.886;9.426;2022-11-20T05:41:45;97542.94;;;6.08;89.73
22104;BME280;11218;48.886;9.426;2022-11-20T05:44:34;97536.91;;;6.01;89.90
22104;BME280;11218;48.886;9.426;2022-11-20T05:47:02;97537.50;;;6.03;90.50
22104;BME280;11218;48.886;9.426;2022-11-20T05:49:30;97536.91;;;6.01;90.64
22104;BME280;11218;48.886;9.426;2022-11-20T05:51:58;97536.44;;;6.04;90.21
22104;BME280;11218;48.886;9.426;2022-11-20T05:54:26;97535.63;;;6.03;90.10
22104;BME280;11218;48.886;9.426;2022-11-20T05:56:54;97539.13;;;6.04;88.99
22104;BME280;11218;48.886;9.426;2022-11-20T05:59:21;97528.31;;;6.10;89.64
22104;BME280;11218;48.886;9.426;2022-11-20T06:01:51;97529.25;;;6.04;88.99
22104;BME280;11218;48.886;9.426;2022-11-20T06:04:19;97527.63;;;6.03;89.81
22104;BME280;11218;48.886;9.426;2022-11-20T06:06:47;97528.44;;;6.04;89.88
22104;BME280;11218;48.886;9.426;2022-11-20T06:09:15;97526.56;;;6.04;89.12
22104;BME280;11218;48.886;9.426;2022-11-20T06:11:43;97535.63;;;6.03;89.90
22104;BME280;11218;48.886;9.426;2022-11-20T06:14:12;97527.50;;;6.10;88.62
22104;BME280;11218;48.886;9.426;2022-11-20T06:16:39;97524.47;;;6.06;88.67
22104;BME280;11218;48.886;9.426;2022-11-20T06:19:09;97521.47;;;6.03;89.00
22104;BME280;11218;48.886;9.426;2022-11-20T06:21:37;97523.66;;;6.06;88.73
22104;BME280;11218;48.886;9.426;2022-11-20T06:24:05;97529.25;;;6.04;89.05
22104;BME280;11218;48.886;9.426;2022-11-20T06:26:33;97520.88;;;6.12;88.95
22104;BME280;11218;48.886;9.426;2022-11-20T06:29:02;97523.31;;;6.14;88.34
22104;BME280;11218;48.886;9.426;2022-11-20T06:31:30;97519.84;;;6.13;88.51
22104;BME280;11218;48.886;9.426;2022-11-20T06:34:04;97526.81;;;6.14;88.17
22104;BME280;11218;48.886;9.426;2022-11-20T06:36:34;97519.59;;;6.15;87.73
22104;BME280;11218;48.886;9.426;2022-11-20T06:39:02;97522.03;;;6.16;87.11
22104;BME280;11218;48.886;9.426;2022-11-20T06:41:30;97523.78;;;6.11;87.99
22104;BME280;11218;48.886;9.426;2022-11-20T06:43:58;97529.00;;;6.17;88.47
22104;BME280;11218;48.886;9.426;2022-11-20T06:46:26;97530.28;;;6.15;88.30
22104;BME280;11218;48.886;9.426;2022-11-20T06:48:54;97521.69;;;6.13;87.32
22104;BME280;11218;48.886;9.426;2022-11-20T06:51:22;97536.22;;;6.17;87.26
22104;BME280;11218;48.886;9.426;2022-11-20T06:53:51;97531.69;;;6.17;88.02
22104;BME280;11218;48.886;9.426;2022-11-20T06:56:20;97535.41;;;6.16;87.54
22104;BME280;11218;48.886;9.426;2022-11-20T06:58:48;97527.84;;;6.13;88.84
22104;BME280;11218;48.886;9.426;2022-11-20T07:01:16;97534.00;;;6.14;88.38
22104;BME280;11218;48.886;9.426;2022-11-20T07:03:44;97527.16;;;6.18;88.99
22104;BME280;11218;48.886;9.426;2022-11-20T07:06:19;97524.25;;;6.19;87.29
22104;BME280;11218;48.886;9.426;2022-11-20T07:08:47;97535.41;;;6.16;89.14
22104;BME280;11218;48.886;9.426;2022-11-20T07:11:19;97537.59;;;6.19;89.01
22104;BME280;11218;48.886;9.426;2022-11-20T07:13:47;97535.75;;;6.20;88.28
22104;BME280;11218;48.886;9.426;2022-11-20T07:16:15;97540.84;;;6.21;87.36
22104;BME280;11218;48.886;9.426;2022-11-20T07:18:43;97540.63;;;6.23;87.41
22104;BME280;11218;48.886;9.426;2022-11-20T07:21:16;97549.44;;;6.23;87.73
22104;BME280;11218;48.886;9.426;2022-11-20T07:23:44;97542.25;;;6.24;88.03
22104;BME280;11218;48.886;9.426;2022-11-20T07:26:12;97541.31;;;6.30;87.29
22104;BME280;11218;48.886;9.426;2022-11-20T07:28:43;97545.59;;;6.31;86.51
22104;BME280;11218;48.886;9.426;2022-11-20T07:31:16;97547.47;;;6.31;87.60
22104;BME280;11218;48.886;9.426;2022-11-20T07:33:45;97551.06;;;6.36;87.79
22104;BME280;11218;48.886;9.426;2022-11-20T07:36:13;97542.69;;;6.33;86.94
22104;BME280;11218;48.886;9.426;2022-11-20T07:38:41;97544.09;;;6.35;86.43
22104;BME280;11218;48.886;9.426;2022-11-20T07:41:09;97550.81;;;6.38;86.94
22104;BME280;11218;48.886;9.426;2022-11-20T07:43:37;97546.06;;;6.40;87.59
22104;BME280;11218;48.886;9.426;2022-11-20T07:46:08;97553.72;;;6.48;86.37
22104;BME280;11218;48.886;9.426;2022-11-20T07:48:37;97556.63;;;6.46;85.78
22104;BME280;11218;48.886;9.426;2022-11-20T07:51:05;97552.56;;;6.44;87.24
22104;BME280;11218;48.886;9.426;2022-11-20T07:53:37;97565.22;;;6.48;87.82
22104;BME280;11218;48.886;9.426;2022-11-20T07:56:05;97558.25;;;6.47;86.47
22104;BME280;11218;48.886;9.426;2022-11-20T07:58:36;97567.09;;;6.48;88.11
22104;BME280;11218;48.886;9.426;2022-11-20T08:01:04;97569.19;;;6.46;87.26
22104;BME280;11218;48.886;9.426;2022-11-20T08:03:35;97571.84;;;6.46;88.26
22104;BME280;11218;48.886;9.426;2022-11-20T08:06:05;97566.50;;;6.46;88.02
22104;BME280;11218;48.886;9.426;2022-11-20T08:08:33;97569.88;;;6.41;89.14
22104;BME280;11218;48.886;9.426;2022-11-20T08:11:08;97572.09;;;6.44;89.83
22104;BME280;11218;48.886;9.426;2022-11-20T08:14:08;97564.88;;;6.45;88.94
22104;BME280;11218;48.886;9.426;2022-11-20T08:16:39;97566.16;;;6.42;88.48
22104;BME280;11218;48.886;9.426;2022-11-20T08:19:09;97571.16;;;6.39;89.39
22104;BME280;11218;48.886;9.426;2022-11-20T08:21:44;97562.91;;;6.40;89.05
22104;BME280;11218;48.886;9.426;2022-11-20T08:24:12;97569.31;;;6.39;89.91
22104;BME280;11218;48.886;9.426;2022-11-20T08:26:41;97571.63;;;6.36;89.83
22104;BME280;11218;48.886;9.426;2022-11-20T08:29:09;97580.47;;;6.36;89.94
22104;BME280;11218;48.886;9.426;2022-11-20T08:31:36;97572.44;;;6.36;89.89
22104;BME280;11218;48.886;9.426;2022-11-20T08:34:04;97567.78;;;6.43;90.30
22104;BME280;11218;48.886;9.426;2022-11-20T08:36:36;97573.84;;;6.39;89.77
22104;BME280;11218;48.886;9.426;2022-11-20T08:39:04;97577.09;;;6.41;89.85
22104;BME280;11218;48.886;9.426;2022-11-20T08:41:32;97572.78;;;6.40;90.31
22104;BME280;11218;48.886;9.426;2022-11-20T08:44:01;97577.19;;;6.46;90.16
22104;BME280;11218;48.886;9.426;2022-11-20T08:46:32;97571.28;;;6.44;89.72
22104;BME280;11218;48.886;9.426;2022-11-20T08:49:02;97576.38;;;6.45;89.83
22104;BME280;11218;48.886;9.426;2022-11-20T08:51:32;97580.91;;;6.45;90.52
22104;BME280;11218;48.886;9.426;2022-11-20T08:54:02;97584.16;;;6.47;89.41
22104;BME280;11218;48.886;9.426;2022-11-20T08:56:31;97585.09;;;6.52;88.82
22104;BME280;11218;48.886;9.426;2022-11-20T08:58:59;97581.72;;;6.57;88.92
22104;BME280;11218;48.886;9.426;2022-11-20T09:01:47;97576.94;;;6.59;90.25
22104;BME280;11218;48.886;9.426;2022-11-20T09:04:15;97584.16;;;6.58;90.12
22104;BME280;11218;48.886;9.426;2022-11-20T09:06:43;97586.00;;;6.58;89.80
22104;BME280;11218;48.886;9.426;2022-11-20T09:09:12;97577.66;;;6.54;90.74
22104;BME280;11218;48.886;9.426;2022-11-20T09:11:40;97580.56;;;6.53;90.05
22104;BME280;11218;48.886;9.426;2022-11-20T09:14:08;97585.91;;;6.53;90.21
22104;BME280;11218;48.886;9.426;2022-11-20T09:16:37;97587.53;;;6.54;90.99
22104;BME280;11218;48.886;9.426;2022-11-20T09:19:10;97585.91;;;6.53;91.38
22104;BME280;11218;48.886;9.426;2022-11-20T09:21:58;97587.75;;;6.52;91.85
22104;BME280;11218;48.886;9.426;2022-11-20T09:24:28;97591.25;;;6.53;91.46
22104;BME280;11218;48.886;9.426;2022-11-20T09:27:05;97600.09;;;6.53;91.62
22104;BME280;11218;48.886;9.426;2022-11-20T09:29:33;97596.59;;;6.53;91.94
22104;BME280;11218;48.886;9.426;2022-11-20T09:32:04;97593.09;;;6.52;92.22
22104;BME280;11218;48.886;9.426;2022-11-20T09:34:32;97594.28;;;6.56;91.20
22104;BME280;11218;48.886;9.426;2022-11-20T09:37:00;97593.22;;;6.57;92.21
22104;BME280;11218;48.886;9.426;2022-11-20T09:39:34;97596.47;;;6.59;91.77
22104;BME280;11218;48.886;9.426;2022-11-20T09:42:23;97601.00;;;6.59;92.56
22104;BME280;11218;48.886;9.426;2022-11-20T09:45:16;97598.69;;;6.63;92.81
22104;BME280;11218;48.886;9.426;2022-11-20T09:47:56;97600.66;;;6.67;92.43
22104;BME280;11218;48.886;9.426;2022-11-20T09:50:33;97596.09;;;6.68;91.49
22104;BME280;11218;48.886;9.426;2022-11-20T09:53:12;97607.03;;;6.66;93.11
22104;BME280;11218;48.886;9.426;2022-11-20T09:55:42;97606.53;;;6.69;92.50
22104;BME280;11218;48.886;9.426;2022-11-20T09:58:15;97604.22;;;6.73;92.73
22104;BME280;11218;48.886;9.426;2022-11-20T10:00:44;97615.94;;;6.83;92.19
22104;BME280;11218;48.886;9.426;2022-11-20T10:03:16;97604.97;;;6.97;91.30
22104;BME280;11218;48.886;9.426;2022-11-20T10:05:47;97606.59;;;6.98;89.82
22104;BME280;11218;48.886;9.426;2022-11-20T10:08:21;97615.28;;;7.05;89.41
22104;BME280;11218;48.886;9.426;2022-11-20T10:10:54;97615.06;;;7.06;90.16
22104;BME280;11218;48.886;9.426;2022-11-20T10:13:37;97607.38;;;7.10;89.44
22104;BME280;11218;48.886;9.426;2022-11-20T10:16:16;97607.72;;;7.13;88.81
22104;BME280;11218;48.886;9.426;2022-11-20T10:19:01;97601.88;;;7.16;89.18
22104;BME280;11218;48.886;9.426;2022-11-20T10:21:40;97606.75;;;7.19;88.06
22104;BME280;11218;48.886;9.426;2022-11-20T10:27:38;97610.91;;;7.27;88.65
22104;BME280;11218;48.886;9.426;2022-11-20T10:30:10;97611.41;;;7.24;88.61
22104;BME280;11218;48.886;9.426;2022-11-20T10:32:40;97612.91;;;7.20;88.60
22104;BME280;11218;48.886;9.426;2022-11-20T10:35:18;97608.97;;;7.22;89.38
22104;BME280;11218;48.886;9.426;2022-11-20T10:37:54;97613.34;;;7.29;88.73
22104;BME280;11218;48.886;9.426;2022-11-20T10:40:28;97612.53;;;7.28;89.41
22104;BME280;11218;48.886;9.426;2022-11-20T10:43:03;97608.25;;;7.27;88.77
22104;BME280;11218;48.886;9.426;2022-11-20T10:45:44;97610.59;;;7.23;89.41
22104;BME280;11218;48.886;9.426;2022-11-20T10:48:22;97613.41;;;7.17;90.55
22104;BME280;11218;48.886;9.426;2022-11-20T10:51:00;97617.81;;;7.23;90.80
22104;BME280;11218;48.886;9.426;2022-11-20T10:53:49;97620.00;;;7.26;90.54
22104;BME280;11218;48.886;9.426;2022-11-20T10:56:22;97619.75;;;7.28;90.58
22104;BME280;11218;48.886;9.426;2022-11-20T11:01:49;97610.38;;;7.42;89.62
22104;BME280;11218;48.886;9.426;2022-11-20T11:04:28;97620.91;;;7.32;90.48
22104;BME280;11218;48.886;9.426;2022-11-20T11:07:05;97609.72;;;7.35;89.82
22104;BME280;11218;48.886;9.426;2022-11-20T11:09:38;97611.34;;;7.36;89.55
22104;BME280;11218;48.886;9.426;2022-11-20T11:12:07;97615.16;;;7.40;90.28
22104;BME280;11218;48.886;9.426;2022-11-20T11:14:46;97604.03;;;7.31;90.49
22104;BME280;11218;48.886;9.426;2022-11-20T11:17:27;97601.03;;;7.28;90.80
22104;BME280;11218;48.886;9.426;2022-11-20T11:20:05;97601.03;;;7.28;90.94
22104;BME280;11218;48.886;9.426;2022-11-20T11:22:39;97598.44;;;7.33;90.95
22104;BME280;11218;48.886;9.426;2022-11-20T11:25:20;97593.91;;;7.33;90.19
22104;BME280;11218;48.886;9.426;2022-11-20T11:27:49;97589.69;;;7.37;90.82
22104;BME280;11218;48.886;9.426;2022-11-20T11:30:19;97579.06;;;7.42;90.42
22104;BME280;11218;48.886;9.426;2022-11-20T11:32:48;97579.84;;;7.43;90.83
22104;BME280;11218;48.886;9.426;2022-11-20T11:35:23;97576.31;;;7.37;91.08
22104;BME280;11218;48.886;9.426;2022-11-20T11:37:53;97571.81;;;7.43;91.67
22104;BME280;11218;48.886;9.426;2022-11-20T11:40:22;97578.81;;;7.44;91.26
22104;BME280;11218;48.886;9.426;2022-11-20T11:42:56;97572.63;;;7.43;91.27
22104;BME280;11218;48.886;9.426;2022-11-20T11:45:25;97566.22;;;7.44;91.15
22104;BME280;11218;48.886;9.426;2022-11-20T11:47:57;97570.63;;;7.50;91.03
22104;BME280;11218;48.886;9.426;2022-11-20T11:50:26;97572.34;;;7.56;91.24
22104;BME280;11218;48.886;9.426;2022-11-20T11:53:07;97567.22;;;7.72;90.67
22104;BME280;11218;48.886;9.426;2022-11-20T11:55:39;97565.22;;;7.79;90.40
22104;BME280;11218;48.886;9.426;2022-11-20T11:58:20;97549.59;;;8.09;88.89
22104;BME280;11218;48.886;9.426;2022-11-20T12:00:57;97551.41;;;8.42;88.08
22104;BME280;11218;48.886;9.426;2022-11-20T12:03:34;97536.91;;;8.60;88.27
22104;BME280;11218;48.886;9.426;2022-11-20T12:06:06;97541.44;;;8.81;88.86
22104;BME280;11218;48.886;9.426;2022-11-20T12:08:44;97538.66;;;8.98;85.74
22104;BME280;11218;48.886;9.426;2022-11-20T12:11:30;97540.03;;;9.01;85.88
22104;BME280;11218;48.886;9.426;2022-11-20T12:14:02;97538.25;;;9.11;84.86
22104;BME280;11218;48.886;9.426;2022-11-20T12:16:35;97533.09;;;9.05;81.56
22104;BME280;11218;48.886;9.426;2022-11-20T12:19:08;97541.16;;;9.05;80.82
22104;BME280;11218;48.886;9.426;2022-11-20T12:21:43;97530.59;;;8.98;80.06
22104;BME280;11218;48.886;9.426;2022-11-20T12:24:32;97535.63;;;8.89;80.67
22104;BME280;11218;48.886;9.426;2022-11-20T12:30:08;97529.09;;;8.80;78.43
22104;BME280;11218;48.886;9.426;2022-11-20T12:32:51;97531.72;;;8.75;80.35
22104;BME280;11218;48.886;9.426;2022-11-20T12:35:41;97516.94;;;8.73;81.63
22104;BME280;11218;48.886;9.426;2022-11-20T12:38:38;97522.16;;;8.84;81.28
22104;BME280;11218;48.886;9.426;2022-11-20T12:41:13;97518.19;;;8.92;79.79
22104;BME280;11218;48.886;9.426;2022-11-20T12:44:13;97511.56;;;9.00;77.79
22104;BME280;11218;48.886;9.426;2022-11-20T12:47:12;97511.72;;;9.15;77.28
22104;BME280;11218;48.886;9.426;2022-11-20T12:49:49;97513.75;;;9.30;76.02
22104;BME280;11218;48.886;9.426;2022-11-20T12:52:35;97521.25;;;9.28;75.91
22104;BME280;11218;48.886;9.426;2022-11-20T12:55:16;97517.16;;;9.20;75.21
22104;BME280;11218;48.886;9.426;2022-11-20T12:57:57;97517.91;;;9.15;75.33
22104;BME280;11218;48.886;9.426;2022-11-20T13:00:26;97510.41;;;9.17;73.65
22104;BME280;11218;48.886;9.426;2022-11-20T13:03:20;97516.44;;;9.30;73.65
22104;BME280;11218;48.886;9.426;2022-11-20T13:05:58;97512.56;;;9.47;72.91
22104;BME280;11218;48.886;9.426;2022-11-20T13:08:33;97513.75;;;9.62;73.64
22104;BME280;11218;48.886;9.426;2022-11-20T13:11:07;97514.41;;;9.79;73.03
22104;BME280;11218;48.886;9.426;2022-11-20T13:13:45;97502.16;;;9.93;69.66
22104;BME280;11218;48.886;9.426;2022-11-20T13:16:19;97512.41;;;10.01;68.50
22104;BME280;11218;48.886;9.426;2022-11-20T13:18:51;97511.13;;;10.09;67.09
22104;BME280;11218;48.886;9.426;2022-11-20T13:21:22;97515.16;;;10.06;65.58
22104;BME280;11218;48.886;9.426;2022-11-20T13:24:05;97502.97;;;9.94;65.89
22104;BME280;11218;48.886;9.426;2022-11-20T13:26:34;97518.41;;;9.76;67.10
22104;BME280;11218;48.886;9.426;2022-11-20T13:29:08;97507.34;;;9.68;66.78
22104;BME280;11218;48.886;9.426;2022-11-20T13:31:50;97508.59;;;9.55;68.53
22104;BME280;11218;48.886;9.426;2022-11-20T13:34:24;97510.84;;;9.36;68.60
22104;BME280;11218;48.886;9.426;2022-11-20T13:36:54;97505.75;;;9.35;67.45
22104;BME280;11218;48.886;9.426;2022-11-20T13:39:27;97512.06;;;9.23;68.20
22104;BME280;11218;48.886;9.426;2022-11-20T13:41:57;97501.78;;;9.15;68.32